sensor_id;sensor_type;location;lat;lon;timestamp;P1;durP1;ratioP1;P2;durP2;ratioP2
51792;SDS011;37850;53.178;6.376;2024-02-26T00:01:49;33.10;;;14.88;;
51792;SDS011;37850;53.178;6.376;2024-02-26T00:04:15;32.42;;;15.50;;
51792;SDS011;37850;53.178;6.376;2024-02-26T00:06:41;32.22;;;15.38;;
51792;SDS011;37850;53.178;6.376;2024-02-26T00:09:07;34.90;;;16.67;;
51792;SDS011;37850;53.178;6.376;2024-02-26T00:11:33;35.35;;;15.27;;
51792;SDS011;37850;53.178;6.376;2024-02-26T00:14:00;32.30;;;14.77;;
51792;SDS011;37850;53.178;6.376;2024-02-26T00:16:26;29.88;;;15.88;;
51792;SDS011;37850;53.178;6.376;2024-02-26T00:18:52;31.52;;;15.55;;
51792;SDS011;37850;53.178;6.376;2024-02-26T00:21:17;35.60;;;16.23;;
51792;SDS011;37850;53.178;6.376;2024-02-26T00:23:43;28.48;;;14.15;;
51792;SDS011;37850;53.178;6.376;2024-02-26T00:26:09;26.95;;;15.48;;
51792;SDS011;37850;53.178;6.376;2024-02-26T00:28:36;23.42;;;13.63;;
51792;SDS011;37850;53.178;6.376;2024-02-26T00:31:02;22.25;;;13.02;;
51792;SDS011;37850;53.178;6.376;2024-02-26T00:33:28;23.20;;;13.45;;
51792;SDS011;37850;53.178;6.376;2024-02-26T00:35:53;23.55;;;13.93;;
51792;SDS011;37850;53.178;6.376;2024-02-26T00:38:19;24.90;;;14.07;;
51792;SDS011;37850;53.178;6.376;2024-02-26T00:40:45;22.17;;;13.20;;
51792;SDS011;37850;53.178;6.376;2024-02-26T00:43:11;23.75;;;13.57;;
51792;SDS011;37850;53.178;6.376;2024-02-26T00:45:37;24.48;;;13.82;;
51792;SDS011;37850;53.178;6.376;2024-02-26T00:48:03;24.38;;;13.88;;
51792;SDS011;37850;53.178;6.376;2024-02-26T00:50:32;24.55;;;13.20;;
51792;SDS011;37850;53.178;6.376;2024-02-26T00:53:01;23.95;;;12.48;;
51792;SDS011;37850;53.178;6.376;2024-02-26T00:55:27;21.27;;;12.45;;
51792;SDS011;37850;53.178;6.376;2024-02-26T00:57:53;20.52;;;12.38;;
51792;SDS011;37850;53.178;6.376;2024-02-26T01:00:19;21.83;;;12.50;;
51792;SDS011;37850;53.178;6.376;2024-02-26T01:02:45;24.67;;;13.68;;
51792;SDS011;37850;53.178;6.376;2024-02-26T01:05:14;18.60;;;11.65;;
51792;SDS011;37850;53.178;6.376;2024-02-26T01:07:41;20.75;;;13.27;;
51792;SDS011;37850;53.178;6.376;2024-02-26T01:10:07;21.20;;;12.45;;
51792;SDS011;37850;53.178;6.376;2024-02-26T01:12:33;18.92;;;12.05;;
51792;SDS011;37850;53.178;6.376;2024-02-26T01:15:00;21.38;;;12.35;;
51792;SDS011;37850;53.178;6.376;2024-02-26T01:17:26;22.75;;;11.80;;
51792;SDS011;37850;53.178;6.376;2024-02-26T01:19:52;23.38;;;12.10;;
51792;SDS011;37850;53.178;6.376;2024-02-26T01:22:18;21.80;;;13.23;;
51792;SDS011;37850;53.178;6.376;2024-02-26T01:24:44;18.98;;;11.00;;
51792;SDS011;37850;53.178;6.376;2024-02-26T01:27:10;21.45;;;12.20;;
51792;SDS011;37850;53.178;6.376;2024-02-26T01:29:36;19.13;;;11.63;;
51792;SDS011;37850;53.178;6.376;2024-02-26T01:32:02;19.45;;;10.95;;
51792;SDS011;37850;53.178;6.376;2024-02-26T01:34:30;19.58;;;10.63;;
51792;SDS011;37850;53.178;6.376;2024-02-26T01:36:55;20.95;;;11.55;;
51792;SDS011;37850;53.178;6.376;2024-02-26T01:39:21;19.33;;;11.38;;
51792;SDS011;37850;53.178;6.376;2024-02-26T01:41:47;19.70;;;11.30;;
51792;SDS011;37850;53.178;6.376;2024-02-26T01:44:13;19.25;;;10.77;;
51792;SDS011;37850;53.178;6.376;2024-02-26T01:46:39;15.57;;;9.88;;
51792;SDS011;37850;53.178;6.376;2024-02-26T01:49:05;18.63;;;10.63;;
51792;SDS011;37850;53.178;6.376;2024-02-26T01:51:32;16.02;;;9.60;;
51792;SDS011;37850;53.178;6.376;2024-02-26T01:53:59;16.77;;;9.75;;
51792;SDS011;37850;53.178;6.376;2024-02-26T01:56:27;18.70;;;10.13;;
51792;SDS011;37850;53.178;6.376;2024-02-26T01:58:57;18.25;;;10.00;;
51792;SDS011;37850;53.178;6.376;2024-02-26T02:01:27;15.25;;;9.35;;
51792;SDS011;37850;53.178;6.376;2024-02-26T02:03:55;15.07;;;9.05;;
51792;SDS011;37850;53.178;6.376;2024-02-26T02:06:24;15.05;;;8.30;;
51792;SDS011;37850;53.178;6.376;2024-02-26T02:08:49;14.65;;;8.68;;
51792;SDS011;37850;53.178;6.376;2024-02-26T02:11:16;14.55;;;7.70;;
51792;SDS011;37850;53.178;6.376;2024-02-26T02:13:42;13.32;;;8.00;;
51792;SDS011;37850;53.178;6.376;2024-02-26T02:16:08;12.98;;;8.30;;
51792;SDS011;37850;53.178;6.376;2024-02-26T02:18:34;13.15;;;7.40;;
51792;SDS011;37850;53.178;6.376;2024-02-26T02:21:00;12.50;;;7.75;;
51792;SDS011;37850;53.178;6.376;2024-02-26T02:23:26;12.27;;;7.28;;
51792;SDS011;37850;53.178;6.376;2024-02-26T02:25:52;14.05;;;8.25;;
51792;SDS011;37850;53.178;6.376;2024-02-26T02:28:20;14.07;;;8.52;;
51792;SDS011;37850;53.178;6.376;2024-02-26T02:30:46;13.02;;;7.47;;
51792;SDS011;37850;53.178;6.376;2024-02-26T02:33:13;14.23;;;8.80;;
51792;SDS011;37850;53.178;6.376;2024-02-26T02:35:40;12.23;;;7.82;;
51792;SDS011;37850;53.178;6.376;2024-02-26T02:38:06;12.90;;;7.72;;
51792;SDS011;37850;53.178;6.376;2024-02-26T02:40:32;14.25;;;8.38;;
51792;SDS011;37850;53.178;6.376;2024-02-26T02:42:57;13.35;;;7.72;;
51792;SDS011;37850;53.178;6.376;2024-02-26T02:45:25;14.32;;;7.50;;
51792;SDS011;37850;53.178;6.376;2024-02-26T02:47:51;15.13;;;7.85;;
51792;SDS011;37850;53.178;6.376;2024-02-26T02:50:16;13.02;;;7.97;;
51792;SDS011;37850;53.178;6.376;2024-02-26T02:52:42;11.85;;;7.78;;
51792;SDS011;37850;53.178;6.376;2024-02-26T02:55:08;13.13;;;7.97;;
51792;SDS011;37850;53.178;6.376;2024-02-26T02:57:33;11.18;;;6.72;;
51792;SDS011;37850;53.178;6.376;2024-02-26T02:59:59;13.40;;;7.80;;
51792;SDS011;37850;53.178;6.376;2024-02-26T03:02:25;12.50;;;6.63;;
51792;SDS011;37850;53.178;6.376;2024-02-26T03:04:50;13.13;;;7.30;;
51792;SDS011;37850;53.178;6.376;2024-02-26T03:07:16;15.57;;;7.65;;
51792;SDS011;37850;53.178;6.376;2024-02-26T03:09:42;11.85;;;6.50;;
51792;SDS011;37850;53.178;6.376;2024-02-26T03:12:08;11.40;;;6.55;;
51792;SDS011;37850;53.178;6.376;2024-02-26T03:14:34;12.05;;;6.55;;
51792;SDS011;37850;53.178;6.376;2024-02-26T03:16:59;13.90;;;6.38;;
51792;SDS011;37850;53.178;6.376;2024-02-26T03:19:25;12.13;;;6.25;;
51792;SDS011;37850;53.178;6.376;2024-02-26T03:21:51;9.98;;;6.35;;
51792;SDS011;37850;53.178;6.376;2024-02-26T03:24:17;12.70;;;6.07;;
51792;SDS011;37850;53.178;6.376;2024-02-26T03:26:42;10.85;;;5.53;;
51792;SDS011;37850;53.178;6.376;2024-02-26T03:29:08;14.93;;;6.82;;
51792;SDS011;37850;53.178;6.376;2024-02-26T03:31:34;9.05;;;5.13;;
51792;SDS011;37850;53.178;6.376;2024-02-26T03:33:59;12.10;;;6.10;;
51792;SDS011;37850;53.178;6.376;2024-02-26T03:36:25;9.98;;;6.30;;
51792;SDS011;37850;53.178;6.376;2024-02-26T03:38:51;9.15;;;5.60;;
51792;SDS011;37850;53.178;6.376;2024-02-26T03:41:17;11.40;;;6.15;;
51792;SDS011;37850;53.178;6.376;2024-02-26T03:43:43;10.93;;;5.80;;
51792;SDS011;37850;53.178;6.376;2024-02-26T03:46:10;10.52;;;6.45;;
51792;SDS011;37850;53.178;6.376;2024-02-26T03:48:38;11.57;;;5.78;;
51792;SDS011;37850;53.178;6.376;2024-02-26T03:51:05;10.73;;;5.07;;
51792;SDS011;37850;53.178;6.376;2024-02-26T03:53:31;8.90;;;5.22;;
51792;SDS011;37850;53.178;6.376;2024-02-26T03:55:56;10.25;;;5.35;;
51792;SDS011;37850;53.178;6.376;2024-02-26T03:58:22;8.73;;;5.18;;
51792;SDS011;37850;53.178;6.376;2024-02-26T04:00:48;9.60;;;5.28;;
51792;SDS011;37850;53.178;6.376;2024-02-26T04:03:14;9.23;;;5.30;;
51792;SDS011;37850;53.178;6.376;2024-02-26T04:05:39;9.90;;;4.97;;
51792;SDS011;37850;53.178;6.376;2024-02-26T04:08:05;10.65;;;4.97;;
51792;SDS011;37850;53.178;6.376;2024-02-26T04:10:32;8.93;;;5.15;;
51792;SDS011;37850;53.178;6.376;2024-02-26T04:13:00;10.15;;;5.28;;
51792;SDS011;37850;53.178;6.376;2024-02-26T04:15:26;10.18;;;5.00;;
51792;SDS011;37850;53.178;6.376;2024-02-26T04:17:52;10.10;;;5.40;;
51792;SDS011;37850;53.178;6.376;2024-02-26T04:20:18;8.63;;;4.60;;
51792;SDS011;37850;53.178;6.376;2024-02-26T04:22:43;9.82;;;4.63;;
51792;SDS011;37850;53.178;6.376;2024-02-26T04:25:09;9.88;;;4.75;;
51792;SDS011;37850;53.178;6.376;2024-02-26T04:27:35;9.90;;;4.85;;
51792;SDS011;37850;53.178;6.376;2024-02-26T04:30:01;8.43;;;4.60;;
51792;SDS011;37850;53.178;6.376;2024-02-26T04:32:29;12.05;;;5.07;;
51792;SDS011;37850;53.178;6.376;2024-02-26T04:34:54;9.23;;;4.70;;
51792;SDS011;37850;53.178;6.376;2024-02-26T04:37:20;9.43;;;4.93;;
51792;SDS011;37850;53.178;6.376;2024-02-26T04:39:46;9.05;;;4.88;;
51792;SDS011;37850;53.178;6.376;2024-02-26T04:42:12;10.73;;;4.90;;
51792;SDS011;37850;53.178;6.376;2024-02-26T04:44:37;11.10;;;4.32;;
51792;SDS011;37850;53.178;6.376;2024-02-26T04:47:03;10.80;;;4.75;;
51792;SDS011;37850;53.178;6.376;2024-02-26T04:49:29;8.48;;;3.97;;
51792;SDS011;37850;53.178;6.376;2024-02-26T04:51:55;9.90;;;3.83;;
51792;SDS011;37850;53.178;6.376;2024-02-26T04:54:21;11.88;;;3.95;;
51792;SDS011;37850;53.178;6.376;2024-02-26T04:56:47;7.63;;;3.58;;
51792;SDS011;37850;53.178;6.376;2024-02-26T04:59:13;8.18;;;4.15;;
51792;SDS011;37850;53.178;6.376;2024-02-26T05:01:39;8.73;;;3.80;;
51792;SDS011;37850;53.178;6.376;2024-02-26T05:04:05;9.63;;;4.30;;
51792;SDS011;37850;53.178;6.376;2024-02-26T05:06:31;9.15;;;4.38;;
51792;SDS011;37850;53.178;6.376;2024-02-26T05:08:56;10.05;;;4.38;;
51792;SDS011;37850;53.178;6.376;2024-02-26T05:11:22;10.70;;;4.20;;
51792;SDS011;37850;53.178;6.376;2024-02-26T05:13:48;12.18;;;4.45;;
51792;SDS011;37850;53.178;6.376;2024-02-26T05:16:13;12.40;;;4.40;;
51792;SDS011;37850;53.178;6.376;2024-02-26T05:18:39;8.27;;;4.38;;
51792;SDS011;37850;53.178;6.376;2024-02-26T05:21:05;10.63;;;4.25;;
51792;SDS011;37850;53.178;6.376;2024-02-26T05:23:31;9.57;;;4.45;;
51792;SDS011;37850;53.178;6.376;2024-02-26T05:25:56;8.45;;;4.55;;
51792;SDS011;37850;53.178;6.376;2024-02-26T05:28:22;7.50;;;4.07;;
51792;SDS011;37850;53.178;6.376;2024-02-26T05:30:48;8.27;;;4.00;;
51792;SDS011;37850;53.178;6.376;2024-02-26T05:33:14;8.05;;;4.30;;
51792;SDS011;37850;53.178;6.376;2024-02-26T05:35:39;10.18;;;4.20;;
51792;SDS011;37850;53.178;6.376;2024-02-26T05:38:05;8.90;;;3.88;;
51792;SDS011;37850;53.178;6.376;2024-02-26T05:40:31;8.75;;;4.80;;
51792;SDS011;37850;53.178;6.376;2024-02-26T05:42:57;8.45;;;4.45;;
51792;SDS011;37850;53.178;6.376;2024-02-26T05:45:22;7.88;;;4.25;;
51792;SDS011;37850;53.178;6.376;2024-02-26T05:47:48;8.80;;;4.60;;
51792;SDS011;37850;53.178;6.376;2024-02-26T05:50:14;6.82;;;3.80;;
51792;SDS011;37850;53.178;6.376;2024-02-26T05:52:40;9.75;;;3.78;;
51792;SDS011;37850;53.178;6.376;2024-02-26T05:55:07;9.82;;;4.05;;
51792;SDS011;37850;53.178;6.376;2024-02-26T05:57:34;9.90;;;3.83;;
51792;SDS011;37850;53.178;6.376;2024-02-26T06:00:01;10.48;;;4.10;;
51792;SDS011;37850;53.178;6.376;2024-02-26T06:02:30;6.80;;;3.90;;
51792;SDS011;37850;53.178;6.376;2024-02-26T06:04:56;6.82;;;3.72;;
51792;SDS011;37850;53.178;6.376;2024-02-26T06:07:22;7.47;;;3.88;;
51792;SDS011;37850;53.178;6.376;2024-02-26T06:09:49;8.63;;;3.63;;
51792;SDS011;37850;53.178;6.376;2024-02-26T06:12:14;5.68;;;3.33;;
51792;SDS011;37850;53.178;6.376;2024-02-26T06:14:41;7.78;;;3.40;;
51792;SDS011;37850;53.178;6.376;2024-02-26T06:17:08;6.10;;;3.20;;
51792;SDS011;37850;53.178;6.376;2024-02-26T06:19:34;6.53;;;3.45;;
51792;SDS011;37850;53.178;6.376;2024-02-26T06:22:00;6.28;;;3.28;;
51792;SDS011;37850;53.178;6.376;2024-02-26T06:24:25;7.47;;;3.20;;
51792;SDS011;37850;53.178;6.376;2024-02-26T06:26:51;5.80;;;2.67;;
51792;SDS011;37850;53.178;6.376;2024-02-26T06:29:17;5.70;;;2.95;;
51792;SDS011;37850;53.178;6.376;2024-02-26T06:31:43;8.20;;;2.70;;
51792;SDS011;37850;53.178;6.376;2024-02-26T06:34:08;7.63;;;3.22;;
51792;SDS011;37850;53.178;6.376;2024-02-26T06:36:34;5.30;;;2.53;;
51792;SDS011;37850;53.178;6.376;2024-02-26T06:39:00;6.65;;;3.00;;
51792;SDS011;37850;53.178;6.376;2024-02-26T06:41:26;5.75;;;2.80;;
51792;SDS011;37850;53.178;6.376;2024-02-26T06:43:55;6.28;;;2.85;;
51792;SDS011;37850;53.178;6.376;2024-02-26T06:46:20;5.20;;;2.80;;
51792;SDS011;37850;53.178;6.376;2024-02-26T06:48:47;4.95;;;2.70;;
51792;SDS011;37850;53.178;6.376;2024-02-26T06:51:14;5.50;;;2.97;;
51792;SDS011;37850;53.178;6.376;2024-02-26T06:53:40;6.07;;;2.80;;
51792;SDS011;37850;53.178;6.376;2024-02-26T06:56:06;6.47;;;3.00;;
51792;SDS011;37850;53.178;6.376;2024-02-26T06:58:32;7.35;;;3.60;;
51792;SDS011;37850;53.178;6.376;2024-02-26T07:00:58;8.55;;;3.50;;
51792;SDS011;37850;53.178;6.376;2024-02-26T07:03:27;7.20;;;3.15;;
51792;SDS011;37850;53.178;6.376;2024-02-26T07:05:55;5.80;;;3.03;;
51792;SDS011;37850;53.178;6.376;2024-02-26T07:08:21;7.13;;;3.38;;
51792;SDS011;37850;53.178;6.376;2024-02-26T07:10:46;7.00;;;3.10;;
51792;SDS011;37850;53.178;6.376;2024-02-26T07:13:12;7.68;;;3.03;;
51792;SDS011;37850;53.178;6.376;2024-02-26T07:15:38;8.80;;;3.03;;
51792;SDS011;37850;53.178;6.376;2024-02-26T07:18:04;9.00;;;3.00;;
51792;SDS011;37850;53.178;6.376;2024-02-26T07:20:29;4.95;;;2.60;;
51792;SDS011;37850;53.178;6.376;2024-02-26T07:22:56;6.50;;;2.92;;
51792;SDS011;37850;53.178;6.376;2024-02-26T07:25:22;5.57;;;2.95;;
51792;SDS011;37850;53.178;6.376;2024-02-26T07:27:49;7.78;;;3.10;;
51792;SDS011;37850;53.178;6.376;2024-02-26T07:30:18;7.18;;;2.88;;
51792;SDS011;37850;53.178;6.376;2024-02-26T07:32:44;6.13;;;2.80;;
51792;SDS011;37850;53.178;6.376;2024-02-26T07:35:09;9.38;;;3.42;;
51792;SDS011;37850;53.178;6.376;2024-02-26T07:37:35;7.28;;;2.85;;
51792;SDS011;37850;53.178;6.376;2024-02-26T07:40:01;6.20;;;2.85;;
51792;SDS011;37850;53.178;6.376;2024-02-26T07:42:27;11.20;;;3.50;;
51792;SDS011;37850;53.178;6.376;2024-02-26T07:44:53;5.63;;;3.00;;
51792;SDS011;37850;53.178;6.376;2024-02-26T07:47:19;8.10;;;2.97;;
51792;SDS011;37850;53.178;6.376;2024-02-26T07:49:46;6.15;;;2.72;;
51792;SDS011;37850;53.178;6.376;2024-02-26T07:52:11;7.70;;;3.22;;
51792;SDS011;37850;53.178;6.376;2024-02-26T07:54:37;7.45;;;3.25;;
51792;SDS011;37850;53.178;6.376;2024-02-26T07:57:03;5.80;;;2.90;;
51792;SDS011;37850;53.178;6.376;2024-02-26T07:59:30;5.65;;;2.90;;
51792;SDS011;37850;53.178;6.376;2024-02-26T08:01:56;6.50;;;2.70;;
51792;SDS011;37850;53.178;6.376;2024-02-26T08:04:22;6.00;;;2.85;;
51792;SDS011;37850;53.178;6.376;2024-02-26T08:06:48;9.07;;;3.10;;
51792;SDS011;37850;53.178;6.376;2024-02-26T08:09:14;6.72;;;2.80;;
51792;SDS011;37850;53.178;6.376;2024-02-26T08:11:40;6.38;;;2.75;;
51792;SDS011;37850;53.178;6.376;2024-02-26T08:14:05;6.38;;;2.78;;
51792;SDS011;37850;53.178;6.376;2024-02-26T08:16:31;6.43;;;2.90;;
51792;SDS011;37850;53.178;6.376;2024-02-26T08:18:57;6.97;;;2.80;;
51792;SDS011;37850;53.178;6.376;2024-02-26T08:21:23;5.78;;;2.20;;
51792;SDS011;37850;53.178;6.376;2024-02-26T08:23:49;6.55;;;2.15;;
51792;SDS011;37850;53.178;6.376;2024-02-26T08:26:14;6.43;;;2.50;;
51792;SDS011;37850;53.178;6.376;2024-02-26T08:28:40;5.97;;;2.28;;
51792;SDS011;37850;53.178;6.376;2024-02-26T08:31:09;6.75;;;2.45;;
51792;SDS011;37850;53.178;6.376;2024-02-26T08:33:35;6.97;;;2.83;;
51792;SDS011;37850;53.178;6.376;2024-02-26T08:36:04;6.18;;;2.45;;
51792;SDS011;37850;53.178;6.376;2024-02-26T08:38:31;5.80;;;1.90;;
51792;SDS011;37850;53.178;6.376;2024-02-26T08:40:56;5.88;;;2.15;;
51792;SDS011;37850;53.178;6.376;2024-02-26T08:43:22;5.55;;;2.10;;
51792;SDS011;37850;53.178;6.376;2024-02-26T08:45:48;5.43;;;2.25;;
51792;SDS011;37850;53.178;6.376;2024-02-26T08:48:14;4.43;;;2.00;;
51792;SDS011;37850;53.178;6.376;2024-02-26T08:50:40;5.40;;;2.03;;
51792;SDS011;37850;53.178;6.376;2024-02-26T08:53:06;6.00;;;1.88;;
51792;SDS011;37850;53.178;6.376;2024-02-26T08:55:32;5.03;;;1.70;;
51792;SDS011;37850;53.178;6.376;2024-02-26T08:57:58;3.67;;;1.60;;
51792;SDS011;37850;53.178;6.376;2024-02-26T09:00:24;5.63;;;1.92;;
51792;SDS011;37850;53.178;6.376;2024-02-26T09:02:50;5.07;;;1.35;;
51792;SDS011;37850;53.178;6.376;2024-02-26T09:05:15;5.05;;;1.27;;
51792;SDS011;37850;53.178;6.376;2024-02-26T09:07:41;5.07;;;1.60;;
51792;SDS011;37850;53.178;6.376;2024-02-26T09:10:07;4.18;;;1.20;;
51792;SDS011;37850;53.178;6.376;2024-02-26T09:12:36;4.47;;;1.20;;
51792;SDS011;37850;53.178;6.376;2024-02-26T09:15:03;1.73;;;0.90;;
51792;SDS011;37850;53.178;6.376;2024-02-26T09:17:29;4.90;;;1.33;;
51792;SDS011;37850;53.178;6.376;2024-02-26T09:19:56;4.35;;;1.38;;
51792;SDS011;37850;53.178;6.376;2024-02-26T09:22:21;3.60;;;1.27;;
51792;SDS011;37850;53.178;6.376;2024-02-26T09:24:48;4.97;;;1.50;;
51792;SDS011;37850;53.178;6.376;2024-02-26T09:27:15;4.60;;;1.63;;
51792;SDS011;37850;53.178;6.376;2024-02-26T09:29:41;5.78;;;1.70;;
51792;SDS011;37850;53.178;6.376;2024-02-26T09:32:07;6.03;;;1.85;;
51792;SDS011;37850;53.178;6.376;2024-02-26T09:34:33;3.80;;;1.80;;
51792;SDS011;37850;53.178;6.376;2024-02-26T09:36:59;5.85;;;1.50;;
51792;SDS011;37850;53.178;6.376;2024-02-26T09:39:25;2.88;;;1.40;;
51792;SDS011;37850;53.178;6.376;2024-02-26T09:41:52;7.50;;;1.52;;
51792;SDS011;37850;53.178;6.376;2024-02-26T09:44:19;3.58;;;1.23;;
51792;SDS011;37850;53.178;6.376;2024-02-26T09:46:46;4.78;;;1.63;;
51792;SDS011;37850;53.178;6.376;2024-02-26T09:49:13;3.67;;;1.45;;
51792;SDS011;37850;53.178;6.376;2024-02-26T09:51:41;4.97;;;1.75;;
51792;SDS011;37850;53.178;6.376;2024-02-26T09:54:07;5.75;;;1.50;;
51792;SDS011;37850;53.178;6.376;2024-02-26T09:56:35;6.07;;;1.50;;
51792;SDS011;37850;53.178;6.376;2024-02-26T09:59:13;5.22;;;1.80;;
51792;SDS011;37850;53.178;6.376;2024-02-26T10:01:42;3.47;;;1.58;;
51792;SDS011;37850;53.178;6.376;2024-02-26T10:04:09;4.65;;;1.85;;
51792;SDS011;37850;53.178;6.376;2024-02-26T10:06:36;5.50;;;1.90;;
51792;SDS011;37850;53.178;6.376;2024-02-26T10:09:02;4.63;;;1.92;;
51792;SDS011;37850;53.178;6.376;2024-02-26T10:11:31;4.57;;;1.95;;
51792;SDS011;37850;53.178;6.376;2024-02-26T10:13:58;5.47;;;2.53;;
51792;SDS011;37850;53.178;6.376;2024-02-26T10:16:26;5.40;;;2.05;;
51792;SDS011;37850;53.178;6.376;2024-02-26T10:18:55;7.78;;;2.30;;
51792;SDS011;37850;53.178;6.376;2024-02-26T10:21:21;6.45;;;2.47;;
51792;SDS011;37850;53.178;6.376;2024-02-26T10:23:48;8.40;;;2.45;;
51792;SDS011;37850;53.178;6.376;2024-02-26T10:26:15;5.53;;;1.90;;
51792;SDS011;37850;53.178;6.376;2024-02-26T10:28:42;8.57;;;2.35;;
51792;SDS011;37850;53.178;6.376;2024-02-26T10:31:09;7.97;;;2.22;;
51792;SDS011;37850;53.178;6.376;2024-02-26T10:33:36;6.78;;;2.38;;
51792;SDS011;37850;53.178;6.376;2024-02-26T10:36:06;5.70;;;1.63;;
51792;SDS011;37850;53.178;6.376;2024-02-26T10:38:36;6.20;;;1.80;;
51792;SDS011;37850;53.178;6.376;2024-02-26T10:41:03;4.40;;;1.83;;
51792;SDS011;37850;53.178;6.376;2024-02-26T10:43:29;7.03;;;1.83;;
51792;SDS011;37850;53.178;6.376;2024-02-26T10:45:55;7.35;;;2.30;;
51792;SDS011;37850;53.178;6.376;2024-02-26T10:48:21;3.97;;;1.77;;
51792;SDS011;37850;53.178;6.376;2024-02-26T10:50:47;5.78;;;1.77;;
51792;SDS011;37850;53.178;6.376;2024-02-26T10:53:17;5.32;;;1.73;;
51792;SDS011;37850;53.178;6.376;2024-02-26T10:55:46;5.78;;;1.90;;
51792;SDS011;37850;53.178;6.376;2024-02-26T10:58:16;4.93;;;1.70;;
51792;SDS011;37850;53.178;6.376;2024-02-26T11:00:43;4.70;;;1.85;;
51792;SDS011;37850;53.178;6.376;2024-02-26T11:03:10;4.93;;;1.83;;
51792;SDS011;37850;53.178;6.376;2024-02-26T11:05:38;8.13;;;2.00;;
51792;SDS011;37850;53.178;6.376;2024-02-26T11:08:06;5.13;;;1.67;;
51792;SDS011;37850;53.178;6.376;2024-02-26T11:10:32;7.20;;;2.00;;
51792;SDS011;37850;53.178;6.376;2024-02-26T11:12:59;9.00;;;2.25;;
51792;SDS011;37850;53.178;6.376;2024-02-26T11:15:31;8.73;;;2.10;;
51792;SDS011;37850;53.178;6.376;2024-02-26T11:17:58;5.07;;;1.90;;
51792;SDS011;37850;53.178;6.376;2024-02-26T11:20:27;5.35;;;2.03;;
51792;SDS011;37850;53.178;6.376;2024-02-26T11:22:54;5.90;;;1.83;;
51792;SDS011;37850;53.178;6.376;2024-02-26T11:25:21;4.47;;;1.92;;
51792;SDS011;37850;53.178;6.376;2024-02-26T11:27:49;6.70;;;2.10;;
51792;SDS011;37850;53.178;6.376;2024-02-26T11:30:19;6.05;;;2.38;;
51792;SDS011;37850;53.178;6.376;2024-02-26T11:32:46;6.35;;;1.85;;
51792;SDS011;37850;53.178;6.376;2024-02-26T11:35:12;7.20;;;2.58;;
51792;SDS011;37850;53.178;6.376;2024-02-26T11:37:41;5.35;;;2.40;;
51792;SDS011;37850;53.178;6.376;2024-02-26T11:40:21;8.25;;;2.60;;
51792;SDS011;37850;53.178;6.376;2024-02-26T11:42:49;7.47;;;2.92;;
51792;SDS011;37850;53.178;6.376;2024-02-26T11:48:01;7.15;;;2.97;;
51792;SDS011;37850;53.178;6.376;2024-02-26T11:50:38;6.70;;;2.80;;
51792;SDS011;37850;53.178;6.376;2024-02-26T11:58:40;5.85;;;2.60;;
51792;SDS011;37850;53.178;6.376;2024-02-26T12:01:35;7.50;;;2.72;;
51792;SDS011;37850;53.178;6.376;2024-02-26T12:04:02;8.27;;;2.78;;
51792;SDS011;37850;53.178;6.376;2024-02-26T12:06:30;8.65;;;3.05;;
51792;SDS011;37850;53.178;6.376;2024-02-26T12:08:56;5.93;;;2.95;;
51792;SDS011;37850;53.178;6.376;2024-02-26T12:11:22;7.07;;;3.13;;
51792;SDS011;37850;53.178;6.376;2024-02-26T12:13:47;10.10;;;4.60;;
51792;SDS011;37850;53.178;6.376;2024-02-26T12:16:38;7.47;;;3.17;;
51792;SDS011;37850;53.178;6.376;2024-02-26T12:19:08;8.00;;;3.40;;
51792;SDS011;37850;53.178;6.376;2024-02-26T12:21:37;7.30;;;3.47;;
51792;SDS011;37850;53.178;6.376;2024-02-26T12:24:07;10.68;;;3.17;;
51792;SDS011;37850;53.178;6.376;2024-02-26T12:26:38;6.93;;;3.10;;
51792;SDS011;37850;53.178;6.376;2024-02-26T12:29:04;7.38;;;3.17;;
51792;SDS011;37850;53.178;6.376;2024-02-26T12:31:30;7.85;;;3.15;;
51792;SDS011;37850;53.178;6.376;2024-02-26T12:33:57;7.38;;;3.20;;
51792;SDS011;37850;53.178;6.376;2024-02-26T12:36:24;7.05;;;3.08;;
51792;SDS011;37850;53.178;6.376;2024-02-26T12:38:50;9.45;;;3.08;;
51792;SDS011;37850;53.178;6.376;2024-02-26T12:41:16;7.28;;;3.40;;
51792;SDS011;37850;53.178;6.376;2024-02-26T12:43:42;7.05;;;3.35;;
51792;SDS011;37850;53.178;6.376;2024-02-26T12:46:08;7.32;;;3.40;;
51792;SDS011;37850;53.178;6.376;2024-02-26T12:48:34;8.93;;;4.18;;
51792;SDS011;37850;53.178;6.376;2024-02-26T12:51:00;8.93;;;3.85;;
51792;SDS011;37850;53.178;6.376;2024-02-26T12:53:26;7.20;;;3.60;;
51792;SDS011;37850;53.178;6.376;2024-02-26T12:55:53;9.77;;;4.30;;
51792;SDS011;37850;53.178;6.376;2024-02-26T12:58:20;8.15;;;3.60;;
51792;SDS011;37850;53.178;6.376;2024-02-26T13:00:50;9.00;;;3.70;;
51792;SDS011;37850;53.178;6.376;2024-02-26T13:03:17;8.10;;;3.95;;
51792;SDS011;37850;53.178;6.376;2024-02-26T13:05:43;7.60;;;4.05;;
51792;SDS011;37850;53.178;6.376;2024-02-26T13:08:10;9.38;;;4.38;;
51792;SDS011;37850;53.178;6.376;2024-02-26T13:10:42;10.30;;;4.95;;
51792;SDS011;37850;53.178;6.376;2024-02-26T13:13:08;9.18;;;4.15;;
51792;SDS011;37850;53.178;6.376;2024-02-26T13:15:34;11.10;;;4.07;;
51792;SDS011;37850;53.178;6.376;2024-02-26T13:17:59;9.25;;;4.15;;
51792;SDS011;37850;53.178;6.376;2024-02-26T13:20:37;8.60;;;3.85;;
51792;SDS011;37850;53.178;6.376;2024-02-26T13:23:10;7.50;;;3.97;;
51792;SDS011;37850;53.178;6.376;2024-02-26T13:25:37;8.88;;;3.50;;
51792;SDS011;37850;53.178;6.376;2024-02-26T13:28:13;13.27;;;4.43;;
51792;SDS011;37850;53.178;6.376;2024-02-26T13:30:41;7.03;;;3.53;;
51792;SDS011;37850;53.178;6.376;2024-02-26T13:33:14;7.60;;;4.10;;
51792;SDS011;37850;53.178;6.376;2024-02-26T13:35:41;8.38;;;3.80;;
51792;SDS011;37850;53.178;6.376;2024-02-26T13:38:07;10.77;;;4.03;;
51792;SDS011;37850;53.178;6.376;2024-02-26T13:40:33;9.27;;;3.88;;
51792;SDS011;37850;53.178;6.376;2024-02-26T13:42:59;9.45;;;4.45;;
51792;SDS011;37850;53.178;6.376;2024-02-26T13:45:25;8.75;;;3.75;;
51792;SDS011;37850;53.178;6.376;2024-02-26T13:47:51;8.38;;;5.00;;
51792;SDS011;37850;53.178;6.376;2024-02-26T13:50:17;7.20;;;3.30;;
51792;SDS011;37850;53.178;6.376;2024-02-26T13:52:46;11.75;;;4.30;;
51792;SDS011;37850;53.178;6.376;2024-02-26T13:55:13;7.47;;;3.70;;
51792;SDS011;37850;53.178;6.376;2024-02-26T13:57:39;9.73;;;5.10;;
51792;SDS011;37850;53.178;6.376;2024-02-26T14:00:05;9.95;;;4.85;;
51792;SDS011;37850;53.178;6.376;2024-02-26T14:02:33;8.73;;;4.28;;
51792;SDS011;37850;53.178;6.376;2024-02-26T14:05:01;12.63;;;5.32;;
51792;SDS011;37850;53.178;6.376;2024-02-26T14:07:29;12.60;;;4.90;;
51792;SDS011;37850;53.178;6.376;2024-02-26T14:09:58;10.77;;;5.40;;
51792;SDS011;37850;53.178;6.376;2024-02-26T14:12:23;10.35;;;4.47;;
51792;SDS011;37850;53.178;6.376;2024-02-26T14:14:49;8.38;;;4.82;;
51792;SDS011;37850;53.178;6.376;2024-02-26T14:17:15;8.13;;;4.50;;
51792;SDS011;37850;53.178;6.376;2024-02-26T14:19:41;11.18;;;4.90;;
51792;SDS011;37850;53.178;6.376;2024-02-26T14:22:12;9.95;;;4.78;;
51792;SDS011;37850;53.178;6.376;2024-02-26T14:24:38;10.00;;;5.82;;
51792;SDS011;37850;53.178;6.376;2024-02-26T14:27:13;8.43;;;4.65;;
51792;SDS011;37850;53.178;6.376;2024-02-26T14:29:42;9.65;;;4.57;;
51792;SDS011;37850;53.178;6.376;2024-02-26T14:32:09;8.45;;;3.95;;
51792;SDS011;37850;53.178;6.376;2024-02-26T14:34:35;11.02;;;4.07;;
51792;SDS011;37850;53.178;6.376;2024-02-26T14:37:01;9.52;;;4.28;;
51792;SDS011;37850;53.178;6.376;2024-02-26T14:39:27;8.50;;;4.22;;
51792;SDS011;37850;53.178;6.376;2024-02-26T14:41:52;9.55;;;4.72;;
51792;SDS011;37850;53.178;6.376;2024-02-26T14:44:18;11.43;;;5.15;;
51792;SDS011;37850;53.178;6.376;2024-02-26T14:46:44;10.50;;;4.65;;